Terminal Aerodrome Forecast
Issued by NWS

Home | Current Version | Previous Version | Text Only | Print | Product List | Glossary On
Versions: 1 2 3 4 5 6 7 8 9 10 11 12 13
337
FTUS45 KTFX 062334
TAFBZN
TAF
KBZN 062334Z 0700/0724 32015G25KT P6SM SCT080 BKN150
     FM070200 29010KT P6SM BKN150
     FM070900 23006KT P6SM SCT150=

USA.gov is the U.S. government's official web portal to all federal, state and local government web resources and services.